createdAt,value
2022-11-16T00:46:08.889Z,102150.50
2022-11-16T00:48:37.198Z,102108.63
2022-11-16T00:51:07.398Z,102151.34
2022-11-16T00:53:38.723Z,102115.44
2022-11-16T00:56:07.369Z,102153.06
2022-11-16T00:58:37.401Z,102127.41
2022-11-16T01:01:12.867Z,102156.47
2022-11-16T01:03:41.066Z,102129.13
2022-11-16T01:06:15.685Z,102161.63
2022-11-16T01:08:44.950Z,102135.13
2022-11-16T01:11:44.904Z,102158.22
2022-11-16T01:14:12.989Z,102153.06
2022-11-16T01:16:44.233Z,102150.50
2022-11-16T01:19:13.888Z,102111.16
2022-11-16T01:21:50.038Z,102126.56
2022-11-16T01:24:19.684Z,102086.38
2022-11-16T01:26:47.607Z,102064.19
2022-11-16T01:29:17.761Z,102094.94
2022-11-16T01:31:46.974Z,102149.66
2022-11-16T01:34:14.939Z,102153.06
2022-11-16T01:37:07.684Z,102144.47
2022-11-16T01:39:35.537Z,102117.13
2022-11-16T01:42:05.622Z,102144.47
2022-11-16T01:45:02.118Z,102142.81
2022-11-16T01:47:33.370Z,102147.06
2022-11-16T01:50:07.904Z,102124.81
2022-11-16T01:52:41.396Z,102132.53
2022-11-16T01:55:11.484Z,102105.19
2022-11-16T01:57:45.176Z,102137.63
2022-11-16T02:00:16.539Z,102144.47
2022-11-16T02:02:47.606Z,102120.56
2022-11-16T02:05:22.036Z,102151.31
2022-11-16T02:08:21.971Z,102141.09
2022-11-16T02:11:05.841Z,102079.50
2022-11-16T02:13:44.578Z,102141.91
2022-11-16T02:16:24.831Z,102150.44
2022-11-16T02:19:05.900Z,102145.34
2022-11-16T02:21:42.974Z,102102.56
2022-11-16T02:24:44.769Z,102142.78
2022-11-16T02:27:51.857Z,102139.34
2022-11-16T02:30:22.797Z,102094.03
2022-11-16T02:32:58.051Z,102106.00
2022-11-16T02:35:30.226Z,102131.63
2022-11-16T02:38:07.077Z,102137.59
2022-11-16T02:40:41.167Z,102087.22
2022-11-16T02:43:16.907Z,102119.69
2022-11-16T02:45:50.911Z,102141.94
2022-11-16T02:48:27.197Z,102140.22
2022-11-16T02:50:56.204Z,102114.56
2022-11-16T02:53:26.833Z,102135.09
2022-11-16T02:55:58.268Z,102119.72
2022-11-16T02:58:30.070Z,102129.97
2022-11-16T03:01:05.777Z,102069.28
2022-11-16T03:03:42.701Z,102125.69
2022-11-16T03:06:16.902Z,102078.66
2022-11-16T03:08:52.138Z,102120.53
2022-11-16T03:11:39.256Z,102082.94
2022-11-16T03:14:15.331Z,102120.56
2022-11-16T03:16:49.459Z,102113.75
2022-11-16T03:19:26.311Z,102086.38
2022-11-16T03:22:01.933Z,102084.59
2022-11-16T03:24:33.241Z,102110.31
2022-11-16T03:27:06.833Z,102112.03
2022-11-16T03:29:43.110Z,102113.72
2022-11-16T03:32:22.774Z,102072.69
2022-11-16T03:34:58.097Z,102078.69
2022-11-16T03:37:31.096Z,102106.03
2022-11-16T03:40:01.229Z,102030.00
2022-11-16T03:42:32.707Z,102105.19
2022-11-16T03:45:01.415Z,102110.28
2022-11-16T03:47:32.865Z,102100.03
2022-11-16T03:50:05.349Z,102058.16
2022-11-16T03:52:36.126Z,102081.22
2022-11-16T03:55:03.978Z,102072.72
2022-11-16T03:57:33.699Z,102107.75
2022-11-16T04:00:01.634Z,102106.03
2022-11-16T04:02:33.151Z,102112.88
2022-11-16T04:05:20.169Z,102107.69
2022-11-16T04:08:18.679Z,102053.91
2022-11-16T04:11:06.045Z,102071.81
2022-11-16T04:13:53.794Z,102053.03
2022-11-16T04:16:40.947Z,102070.09
2022-11-16T04:19:29.575Z,102102.59
2022-11-16T04:22:19.790Z,102057.25
2022-11-16T04:24:51.661Z,102050.47
2022-11-16T04:27:50.245Z,102094.03
2022-11-16T04:30:18.313Z,102094.03
2022-11-16T04:33:05.793Z,102079.47
2022-11-16T04:35:54.181Z,102088.91
2022-11-16T04:38:24.094Z,102084.69
2022-11-16T04:40:54.093Z,102094.91
2022-11-16T04:43:21.240Z,102055.59
2022-11-16T04:46:08.057Z,102092.34
2022-11-16T04:48:38.075Z,102074.44
2022-11-16T04:51:07.672Z,102086.38
2022-11-16T04:53:37.307Z,102094.06
2022-11-16T04:56:07.917Z,102073.56
2022-11-16T04:58:35.797Z,102084.66
2022-11-16T05:01:05.602Z,102085.50
2022-11-16T05:03:35.752Z,102084.66
2022-11-16T05:06:03.506Z,102085.53
2022-11-16T05:08:35.225Z,102088.09
2022-11-16T05:11:05.437Z,102084.66
2022-11-16T05:13:33.249Z,102039.34
2022-11-16T05:16:02.875Z,102036.81
2022-11-16T05:18:30.973Z,102015.44
2022-11-16T05:21:00.577Z,102079.50
2022-11-16T05:23:47.572Z,102081.22
2022-11-16T05:26:17.177Z,102076.13
2022-11-16T05:28:45.019Z,102031.69
2022-11-16T05:31:14.826Z,102076.13
2022-11-16T05:33:45.108Z,102058.19
2022-11-16T05:36:12.895Z,102095.75
2022-11-16T05:38:42.916Z,102092.34
2022-11-16T05:41:12.998Z,102047.91
2022-11-16T05:43:42.193Z,102092.34
2022-11-16T05:46:11.816Z,102072.69
2022-11-16T05:48:39.736Z,102042.81
2022-11-16T05:51:11.835Z,102076.13
2022-11-16T05:53:42.071Z,102075.28
2022-11-16T05:56:14.286Z,102044.47
2022-11-16T05:58:46.341Z,102052.16
2022-11-16T06:01:16.579Z,102084.63
2022-11-16T06:03:44.375Z,102088.06
2022-11-16T06:06:16.230Z,102087.19
2022-11-16T06:08:44.214Z,102074.38
2022-11-16T06:11:15.344Z,102039.31
2022-11-16T06:13:47.700Z,102052.97
2022-11-16T06:16:15.505Z,102096.56
2022-11-16T06:18:44.750Z,102103.41
2022-11-16T06:21:17.496Z,102106.84
2022-11-16T06:23:45.379Z,102069.22
2022-11-16T06:26:13.710Z,102060.63
2022-11-16T06:28:47.063Z,102111.97
2022-11-16T06:31:14.944Z,102110.28
2022-11-16T06:33:42.796Z,102108.56
2022-11-16T06:36:14.643Z,102086.34
2022-11-16T06:38:42.451Z,102113.63
2022-11-16T06:41:10.243Z,102113.66
2022-11-16T06:43:42.271Z,102117.09
2022-11-16T06:46:11.427Z,102070.09
2022-11-16T06:48:39.213Z,102115.41
2022-11-16T06:51:11.356Z,102120.50
2022-11-16T06:53:39.191Z,102071.69
2022-11-16T06:56:07.567Z,102113.63
2022-11-16T06:58:42.632Z,102090.56
2022-11-16T07:01:13.100Z,102104.25
2022-11-16T07:03:44.996Z,102105.13
2022-11-16T07:06:14.703Z,102054.63
2022-11-16T07:08:42.569Z,102079.47
2022-11-16T07:11:14.982Z,102071.75
2022-11-16T07:13:42.766Z,102069.19
2022-11-16T07:16:13.639Z,102104.25
2022-11-16T07:18:44.271Z,102095.72
2022-11-16T07:21:13.718Z,102084.63
2022-11-16T07:23:41.558Z,102044.41
2022-11-16T07:26:14.316Z,102095.75
2022-11-16T07:28:47.763Z,102087.19
2022-11-16T07:31:20.140Z,102061.56
2022-11-16T07:33:47.968Z,102092.31
2022-11-16T07:36:16.686Z,102023.06
2022-11-16T07:38:48.706Z,102052.97
2022-11-16T07:41:19.012Z,102091.44
2022-11-16T07:43:52.607Z,102089.72
2022-11-16T07:49:16.203Z,102058.91
2022-11-16T07:51:49.023Z,102087.13
2022-11-16T07:54:17.225Z,102074.34
2022-11-16T07:56:45.121Z,102070.13
2022-11-16T07:59:15.205Z,102107.69
2022-11-16T08:01:44.452Z,102074.34
2022-11-16T08:04:12.305Z,102082.91
2022-11-16T08:06:44.267Z,102111.94
2022-11-16T08:09:15.197Z,102105.94
2022-11-16T08:11:42.977Z,102099.16
2022-11-16T08:14:12.836Z,102060.69
2022-11-16T08:16:40.595Z,102035.06
2022-11-16T08:19:10.327Z,102073.50
2022-11-16T08:21:42.173Z,102106.81
2022-11-16T08:24:14.277Z,102035.00
2022-11-16T08:26:42.077Z,102067.47
2022-11-16T08:29:10.128Z,102106.00
2022-11-16T08:31:38.441Z,102106.88
2022-11-16T08:34:06.295Z,102099.19
2022-11-16T08:36:37.664Z,102089.78
2022-11-16T08:39:07.797Z,102096.63
2022-11-16T08:41:37.706Z,102091.50
2022-11-16T08:44:07.957Z,102064.16
2022-11-16T08:46:36.021Z,102041.09
2022-11-16T08:49:03.953Z,102046.19
2022-11-16T08:51:31.836Z,102095.75
2022-11-16T08:54:01.681Z,102054.69
2022-11-16T08:56:30.249Z,102102.59
2022-11-16T08:59:00.744Z,102102.59
2022-11-16T09:01:32.554Z,102110.28
2022-11-16T09:04:00.999Z,102117.09
2022-11-16T09:06:29.377Z,102110.25
2022-11-16T09:09:01.104Z,102082.91
2022-11-16T09:11:29.327Z,102120.50
2022-11-16T09:14:00.920Z,102104.28
2022-11-16T09:16:30.986Z,102121.38
2022-11-16T09:18:58.855Z,102100.03
2022-11-16T09:21:30.164Z,102106.88
2022-11-16T09:24:01.589Z,102112.81
2022-11-16T09:26:29.490Z,102115.41
2022-11-16T09:28:59.085Z,102122.25
2022-11-16T09:31:27.968Z,102092.31
2022-11-16T09:33:58.298Z,102088.03
2022-11-16T09:36:29.760Z,102121.41
2022-11-16T09:42:10.269Z,102121.41
2022-11-16T09:44:53.178Z,102118.84
2022-11-16T09:47:27.019Z,102087.22
2022-11-16T09:50:02.785Z,102116.28
2022-11-16T09:52:36.108Z,102082.97
2022-11-16T09:55:23.022Z,102108.59
2022-11-16T09:57:55.717Z,102112.91
2022-11-16T10:00:25.393Z,102055.63
2022-11-16T10:03:02.430Z,102106.03
2022-11-16T10:05:38.572Z,102063.34
2022-11-16T10:08:13.994Z,102112.03
2022-11-16T10:10:51.988Z,102106.91
2022-11-16T10:13:35.640Z,102112.91
2022-11-16T10:16:14.873Z,102057.38
2022-11-16T10:18:56.402Z,102112.03
2022-11-16T10:21:42.649Z,102111.19
2022-11-16T10:24:33.640Z,102111.19
2022-11-16T10:27:21.782Z,102112.03
2022-11-16T10:30:01.922Z,102104.34
2022-11-16T10:32:33.754Z,102110.34
2022-11-16T10:35:06.661Z,102112.91
2022-11-16T10:37:42.076Z,102088.94
2022-11-16T10:40:20.869Z,102058.22
2022-11-16T10:43:00.504Z,102088.94
2022-11-16T10:45:39.042Z,102102.63
2022-11-16T10:48:16.739Z,102080.44
2022-11-16T10:50:55.539Z,102107.78
2022-11-16T10:53:35.600Z,102088.09
2022-11-16T10:56:20.464Z,102106.03
2022-11-16T10:58:56.307Z,102113.75
2022-11-16T11:01:46.166Z,102112.91
2022-11-16T11:04:20.094Z,102100.94
2022-11-16T11:06:53.259Z,102105.22
2022-11-16T11:09:28.994Z,102104.34
2022-11-16T11:12:24.702Z,102107.75
2022-11-16T11:15:26.171Z,102091.53
2022-11-16T11:18:27.191Z,102100.06
2022-11-16T11:21:10.074Z,102099.22
2022-11-16T11:23:45.125Z,102095.78
2022-11-16T11:26:34.735Z,102094.06
2022-11-16T11:29:20.033Z,102095.78
2022-11-16T11:31:52.423Z,102088.03
2022-11-16T11:34:26.632Z,102047.06
2022-11-16T11:36:59.380Z,102081.22
2022-11-16T11:39:37.125Z,102051.31
2022-11-16T11:42:21.445Z,102082.03
2022-11-16T11:44:57.203Z,102080.38
2022-11-16T11:50:22.534Z,102088.09
2022-11-16T11:53:03.189Z,102088.06
2022-11-16T11:55:35.481Z,102088.09
2022-11-16T11:58:05.677Z,102066.72
2022-11-16T12:00:47.238Z,102043.69
2022-11-16T12:03:43.476Z,102077.84
2022-11-16T12:06:20.592Z,102080.38
2022-11-16T12:09:14.743Z,102075.28
2022-11-16T12:11:57.569Z,102076.94
2022-11-16T12:14:49.766Z,102061.53
2022-11-16T12:17:28.892Z,102065.78
2022-11-16T12:20:11.577Z,102067.50
2022-11-16T12:23:04.254Z,102073.50
2022-11-16T12:25:42.455Z,102053.88
2022-11-16T12:28:23.612Z,102055.53
2022-11-16T12:31:03.567Z,102011.09
2022-11-16T12:33:40.213Z,101992.31
2022-11-16T12:36:18.162Z,102058.88
2022-11-16T12:39:05.296Z,102050.44
2022-11-16T12:41:58.218Z,102000.09
2022-11-16T12:44:42.026Z,102058.16
2022-11-16T12:47:19.848Z,102055.59
2022-11-16T12:50:04.245Z,102059.03
2022-11-16T12:52:52.147Z,102054.75
2022-11-16T12:55:27.933Z,102063.31
2022-11-16T12:58:20.390Z,102058.19
2022-11-16T13:01:06.893Z,102012.06
2022-11-16T13:03:42.724Z,101993.28
2022-11-16T13:06:18.124Z,101992.44
2022-11-16T13:08:52.004Z,102045.38
2022-11-16T13:11:25.761Z,102061.59
2022-11-16T13:13:59.332Z,102059.03
2022-11-16T13:16:30.479Z,102017.19
2022-11-16T13:19:00.244Z,102024.84
2022-11-16T13:21:43.768Z,102012.06
2022-11-16T13:24:25.385Z,102052.22
2022-11-16T13:27:02.371Z,102019.75
2022-11-16T13:29:38.123Z,102008.63
2022-11-16T13:32:14.950Z,102059.06
2022-11-16T13:34:43.086Z,102056.47
2022-11-16T13:37:42.684Z,102051.34
2022-11-16T13:40:21.043Z,102052.22
2022-11-16T13:43:04.440Z,101991.56
2022-11-16T13:45:39.101Z,102053.06
2022-11-16T13:48:18.832Z,102052.25
2022-11-16T13:50:53.087Z,102030.88
2022-11-16T13:56:24.190Z,102047.97
2022-11-16T13:58:56.241Z,102034.28
2022-11-16T14:01:26.663Z,102038.56
2022-11-16T14:04:37.489Z,102040.28
2022-11-16T14:07:26.666Z,102044.53
2022-11-16T14:09:56.437Z,102044.53
2022-11-16T14:12:51.784Z,102043.69
2022-11-16T14:15:22.922Z,102037.69
2022-11-16T14:17:57.133Z,102036.84
2022-11-16T14:20:38.381Z,102034.31
2022-11-16T14:23:15.249Z,102028.31
2022-11-16T14:25:49.997Z,102028.31
2022-11-16T14:28:44.016Z,102023.16
2022-11-16T14:31:21.682Z,102023.19
2022-11-16T14:33:54.399Z,102018.06
2022-11-16T14:36:40.270Z,101965.97
2022-11-16T14:39:29.996Z,101987.31
2022-11-16T14:42:01.734Z,102033.44
2022-11-16T14:44:33.342Z,102026.59
2022-11-16T14:47:05.685Z,102020.63
2022-11-16T14:49:38.575Z,102030.03
2022-11-16T14:52:08.742Z,102025.75
2022-11-16T14:54:43.150Z,102028.34
2022-11-16T14:57:21.059Z,101971.09
2022-11-16T15:00:08.771Z,102024.91
2022-11-16T15:02:39.819Z,101977.06
2022-11-16T15:05:15.484Z,102016.34
2022-11-16T15:07:46.316Z,102018.94
2022-11-16T15:10:18.540Z,102018.06
2022-11-16T15:12:53.526Z,102019.78
2022-11-16T15:15:26.646Z,102022.34
2022-11-16T15:18:09.351Z,102021.47
2022-11-16T15:20:39.223Z,102021.47
2022-11-16T15:23:17.994Z,102016.34
2022-11-16T15:25:54.217Z,102020.63
2022-11-16T15:28:25.957Z,102030.03
2022-11-16T15:30:58.901Z,102011.25
2022-11-16T15:33:32.048Z,102023.19
2022-11-16T15:36:00.547Z,102013.81
2022-11-16T15:38:34.795Z,102012.09
2022-11-16T15:41:05.748Z,101978.78
2022-11-16T15:43:49.827Z,101967.66
2022-11-16T15:46:33.049Z,102016.34
2022-11-16T15:49:05.572Z,101983.03
2022-11-16T15:51:33.324Z,102019.78
2022-11-16T15:54:24.267Z,101989.00
2022-11-16T15:56:56.023Z,101969.38
2022-11-16T15:59:31.022Z,101985.59
2022-11-16T16:01:59.068Z,102009.53
2022-11-16T16:04:29.967Z,102010.38
2022-11-16T16:07:01.661Z,102015.50
2022-11-16T16:09:33.423Z,102013.78
2022-11-16T16:12:19.629Z,102014.66
2022-11-16T16:14:48.570Z,101983.03
2022-11-16T16:17:26.458Z,102018.06
2022-11-16T16:19:58.543Z,102012.94
2022-11-16T16:22:31.452Z,101940.31
2022-11-16T16:25:01.819Z,101976.19
2022-11-16T16:27:34.269Z,102005.22
2022-11-16T16:30:06.379Z,101993.28
2022-11-16T16:32:38.677Z,101956.50
2022-11-16T16:35:16.713Z,102003.50
2022-11-16T16:37:44.697Z,102014.59
2022-11-16T16:40:14.754Z,102017.97
2022-11-16T16:42:44.053Z,102014.56
2022-11-16T16:45:22.634Z,102023.13
2022-11-16T16:47:50.473Z,101936.00
2022-11-16T16:50:18.548Z,102021.44
2022-11-16T16:52:48.433Z,102016.31
2022-11-16T16:55:16.270Z,101972.75
2022-11-16T16:57:47.498Z,102018.00
2022-11-16T17:00:18.553Z,101976.97
2022-11-16T17:02:46.481Z,102021.34
2022-11-16T17:05:16.885Z,101969.25
2022-11-16T17:07:46.371Z,102007.69
2022-11-16T17:10:14.215Z,101953.91
2022-11-16T17:12:45.667Z,102012.00
2022-11-16T17:15:19.300Z,101958.13
2022-11-16T17:17:49.757Z,102010.28
2022-11-16T17:20:19.923Z,101933.38
2022-11-16T17:22:47.737Z,102010.25
2022-11-16T17:25:17.879Z,102010.22
2022-11-16T17:27:48.951Z,102005.09
2022-11-16T17:30:17.177Z,101982.03
2022-11-16T17:32:47.269Z,101980.34
2022-11-16T17:35:17.203Z,102019.66
2022-11-16T17:37:47.757Z,102008.53
2022-11-16T17:40:16.038Z,102011.09
2022-11-16T17:42:46.041Z,101978.63
2022-11-16T17:45:15.555Z,102004.22
2022-11-16T17:47:43.458Z,101937.50
2022-11-16T17:50:13.714Z,102008.50
2022-11-16T17:52:43.882Z,102011.88
2022-11-16T17:55:11.736Z,102008.50
2022-11-16T17:57:44.509Z,102012.81
2022-11-16T18:00:17.439Z,101958.09
2022-11-16T18:02:45.292Z,101978.50
2022-11-16T18:05:14.997Z,102006.75
2022-11-16T18:07:45.101Z,102007.56
2022-11-16T18:10:18.914Z,101957.94
2022-11-16T18:12:56.115Z,102003.31
2022-11-16T18:15:29.272Z,101993.09
2022-11-16T18:18:01.378Z,102009.38
2022-11-16T18:20:29.603Z,102010.25
2022-11-16T18:22:57.491Z,102003.38
2022-11-16T18:25:35.218Z,101989.72
2022-11-16T18:28:07.365Z,101951.28
2022-11-16T18:30:47.633Z,102011.91
2022-11-16T18:33:18.564Z,102005.91
2022-11-16T18:35:46.462Z,102011.94
2022-11-16T18:38:18.410Z,102006.81
2022-11-16T18:41:02.959Z,102008.53
2022-11-16T18:43:36.569Z,101998.31
2022-11-16T18:46:12.071Z,101974.34
2022-11-16T18:48:52.164Z,102000.88
2022-11-16T18:51:21.188Z,101958.13
2022-11-16T18:53:49.961Z,101999.16
2022-11-16T18:56:20.580Z,102003.34
2022-11-16T18:58:52.971Z,101998.28
2022-11-16T19:01:26.465Z,102000.91
2022-11-16T19:03:56.359Z,102006.81
2022-11-16T19:06:24.981Z,102009.34
2022-11-16T19:08:59.843Z,102004.22
2022-11-16T19:11:34.834Z,102014.41
2022-11-16T19:14:09.330Z,102013.56
2022-11-16T19:16:53.975Z,101962.28
2022-11-16T19:19:26.843Z,101952.06
2022-11-16T19:22:03.383Z,102000.69
2022-11-16T19:24:31.471Z,102014.41
2022-11-16T19:26:59.983Z,102012.66
2022-11-16T19:29:40.030Z,102004.19
2022-11-16T19:32:15.621Z,102004.22
2022-11-16T19:34:51.701Z,101999.94
2022-11-16T19:37:22.992Z,102005.03
2022-11-16T19:39:54.835Z,101996.44
2022-11-16T19:42:28.365Z,102003.34
2022-11-16T19:44:56.363Z,101999.03
2022-11-16T19:47:29.119Z,102010.97
2022-11-16T19:50:02.087Z,101946.00
2022-11-16T19:52:34.110Z,102009.19
2022-11-16T19:55:07.373Z,102002.38
2022-11-16T19:57:40.569Z,102003.25
2022-11-16T20:00:18.658Z,101966.50
2022-11-16T20:02:53.598Z,102006.63
2022-11-16T20:05:25.766Z,101975.03
2022-11-16T20:08:04.844Z,101996.41
2022-11-16T20:10:39.269Z,101979.25
2022-11-16T20:13:11.769Z,101944.19
2022-11-16T20:15:43.978Z,102001.47
2022-11-16T20:18:17.772Z,102003.91
2022-11-16T20:20:45.905Z,101927.03
2022-11-16T20:23:16.688Z,101999.78
2022-11-16T20:25:51.594Z,101993.78
2022-11-16T20:28:31.505Z,101988.59
2022-11-16T20:31:07.468Z,101997.13
2022-11-16T20:33:37.484Z,101990.38
2022-11-16T20:36:10.435Z,101980.16
2022-11-16T20:38:42.245Z,101991.28
2022-11-16T20:41:23.618Z,101994.66
2022-11-16T20:44:07.777Z,101998.91
2022-11-16T20:46:48.759Z,101998.91
2022-11-16T20:49:18.127Z,101990.34
2022-11-16T20:51:47.657Z,101947.63
2022-11-16T20:54:23.185Z,101984.47
2022-11-16T20:56:53.465Z,101985.25
2022-11-16T20:59:23.880Z,101988.69
2022-11-16T21:01:53.542Z,101980.19
2022-11-16T21:04:23.306Z,101931.41
2022-11-16T21:06:54.873Z,101982.75
2022-11-16T21:09:25.805Z,101973.31
2022-11-16T21:12:13.381Z,101949.38
2022-11-16T21:14:43.400Z,101975.84
2022-11-16T21:17:13.796Z,101982.72
2022-11-16T21:20:05.482Z,101970.72
2022-11-16T21:22:36.193Z,101982.75
2022-11-16T21:25:06.008Z,101945.97
2022-11-16T21:27:33.812Z,101986.06
2022-11-16T21:30:03.896Z,101945.03
2022-11-16T21:32:33.835Z,101986.88
2022-11-16T21:35:03.110Z,101983.44
2022-11-16T21:37:33.167Z,101997.03
2022-11-16T21:40:03.063Z,101993.59
2022-11-16T21:42:30.853Z,101922.53
2022-11-16T21:45:02.679Z,101975.38
2022-11-16T21:47:30.466Z,101933.69
2022-11-16T21:52:49.298Z,101987.56
2022-11-16T21:55:17.084Z,101997.81
2022-11-16T21:57:44.837Z,102006.38
2022-11-16T22:00:13.798Z,101996.06
2022-11-16T22:02:41.570Z,101992.63
2022-11-16T22:05:39.504Z,101946.34
2022-11-16T22:08:11.564Z,101996.03
2022-11-16T22:10:39.357Z,101993.25
2022-11-16T22:13:09.110Z,101985.53
2022-11-16T22:15:36.972Z,101917.25
2022-11-16T22:18:05.098Z,101943.66
2022-11-16T22:20:33.038Z,101985.47
2022-11-16T22:23:00.964Z,101945.03
2022-11-16T22:25:30.337Z,101946.88
2022-11-16T22:28:19.684Z,101986.94
2022-11-16T22:30:51.780Z,101979.16
2022-11-16T22:33:20.478Z,101960.94
2022-11-16T22:35:50.564Z,101993.19
2022-11-16T22:38:18.330Z,101955.47
2022-11-16T22:40:53.834Z,101994.16
2022-11-16T22:43:25.844Z,101985.63
2022-11-16T22:46:00.789Z,101989.78
2022-11-16T22:48:35.595Z,101989.84
2022-11-16T22:51:07.947Z,101928.22
2022-11-16T22:53:38.236Z,101982.22
2022-11-16T22:56:09.250Z,101984.88
2022-11-16T22:58:37.550Z,101977.28
2022-11-16T23:01:09.388Z,101988.47
2022-11-16T23:03:40.302Z,101972.25
2022-11-16T23:06:10.985Z,101968.00
2022-11-16T23:08:40.054Z,101980.88
2022-11-16T23:11:31.934Z,101991.19
2022-11-16T23:14:20.362Z,101991.09
2022-11-16T23:16:50.348Z,101984.38
2022-11-16T23:19:39.335Z,101984.44
2022-11-16T23:22:27.065Z,101986.16
2022-11-16T23:25:12.523Z,101983.59
2022-11-16T23:27:47.586Z,101987.84
2022-11-16T23:30:17.846Z,101976.88
2022-11-16T23:32:45.875Z,101929.81
2022-11-16T23:35:14.583Z,101972.63
2022-11-16T23:37:57.999Z,101970.00
2022-11-16T23:40:29.392Z,101959.69
2022-11-16T23:43:18.700Z,101920.34
2022-11-16T23:45:51.383Z,101953.81
2022-11-16T23:48:21.427Z,101908.53
2022-11-16T23:50:49.187Z,101935.91
2022-11-16T23:53:18.910Z,101958.94
2022-11-16T23:55:48.796Z,101955.47
2022-11-16T23:58:17.978Z,101954.69
